Time;durP1;ratioP1;P1;durP2;ratioP2;P2;SDS_P1;SDS_P2;PMS_P1;PMS_P2;Temp;Humidity;BMP_temperature;BMP_pressure;BME280_temperature;BME280_humidity;BME280_pressure;Samples;Min_cycle;Max_cycle;Signal;HPM_P1;HPM_P2
2022/11/13 00:00:27;;;;;;;24.77;9.43;;;;;;;;;;5028373;28;20041;-62
2022/11/13 00:02:52;;;;;;;51.95;9.48;;;;;;;;;;5034052;28;20036;-62
2022/11/13 00:05:18;;;;;;;125.05;11.75;;;;;;;;;;5046060;28;20724;-62
2022/11/13 00:07:43;;;;;;;37.67;8.30;;;;;;;;;;5047729;28;20045;-62
2022/11/13 00:10:09;;;;;;;146.90;11.60;;;;;;;;;;5048875;28;20120;-62
2022/11/13 00:12:34;;;;;;;109.28;11.57;;;;;;;;;;5037125;28;20031;-62
2022/11/13 00:14:59;;;;;;;79.65;11.30;;;;;;;;;;5026707;28;20030;-63
2022/11/13 00:17:25;;;;;;;53.80;9.18;;;;;;;;;;5028299;28;20117;-62
2022/11/13 00:19:50;;;;;;;80.32;9.82;;;;;;;;;;5028345;28;20048;-62
2022/11/13 00:22:15;;;;;;;39.92;11.10;;;;;;;;;;5032830;28;20025;-62
2022/11/13 00:24:41;;;;;;;74.15;10.70;;;;;;;;;;5028561;28;20100;-62
2022/11/13 00:27:06;;;;;;;93.57;11.48;;;;;;;;;;5026181;28;20457;-62
2022/11/13 00:29:31;;;;;;;72.75;11.13;;;;;;;;;;5027313;28;20065;-62
2022/11/13 00:31:57;;;;;;;70.95;9.63;;;;;;;;;;5028382;28;20054;-62
2022/11/13 00:34:22;;;;;;;32.70;8.55;;;;;;;;;;5028050;28;20028;-62
2022/11/13 00:36:47;;;;;;;48.60;9.23;;;;;;;;;;5028067;28;20026;-62
2022/11/13 00:39:12;;;;;;;40.30;8.95;;;;;;;;;;5034384;28;20068;-63
2022/11/13 00:41:38;;;;;;;56.10;9.10;;;;;;;;;;5046702;28;20027;-62
2022/11/13 00:44:03;;;;;;;50.97;7.88;;;;;;;;;;5036439;28;20866;-62
2022/11/13 00:46:29;;;;;;;56.67;9.45;;;;;;;;;;5031132;28;20450;-62
2022/11/13 00:48:54;;;;;;;70.05;9.02;;;;;;;;;;5027935;28;20025;-62
2022/11/13 00:51:20;;;;;;;66.68;9.30;;;;;;;;;;5028233;28;20033;-62
2022/11/13 00:53:45;;;;;;;32.40;7.47;;;;;;;;;;5026605;28;20470;-62
2022/11/13 00:56:11;;;;;;;93.13;10.23;;;;;;;;;;5026508;28;20037;-62
2022/11/13 00:58:36;;;;;;;49.80;8.93;;;;;;;;;;5026722;28;20026;-63
2022/11/13 01:01:11;;;;;;;15.95;8.25;;;;;;;;;;5026711;28;20108;-62
2022/11/13 01:03:36;;;;;;;51.88;10.25;;;;;;;;;;5027817;28;20033;-62
2022/11/13 01:06:17;;;;;;;39.33;9.98;;;;;;;;;;5027798;28;20041;-62
2022/11/13 01:08:42;;;;;;;26.13;10.38;;;;;;;;;;5030116;28;20041;-62
2022/11/13 01:11:14;;;;;;;24.52;10.82;;;;;;;;;;5035311;28;20457;-62
2022/11/13 01:13:40;;;;;;;41.50;9.82;;;;;;;;;;5047720;28;20021;-62
2022/11/13 01:16:08;;;;;;;23.52;9.35;;;;;;;;;;5040570;28;20021;-62
2022/11/13 01:18:33;;;;;;;20.13;9.52;;;;;;;;;;5027004;28;20021;-62
2022/11/13 01:21:09;;;;;;;62.10;10.65;;;;;;;;;;5027556;28;20053;-62
2022/11/13 01:23:34;;;;;;;29.77;10.63;;;;;;;;;;5026920;28;20037;-62
2022/11/13 01:26:05;;;;;;;35.45;10.27;;;;;;;;;;5026193;28;20030;-62
2022/11/13 01:28:31;;;;;;;21.45;10.18;;;;;;;;;;5025210;28;20026;-62
2022/11/13 01:30:56;;;;;;;22.95;10.93;;;;;;;;;;5025185;28;20049;-62
2022/11/13 01:33:21;;;;;;;19.92;9.88;;;;;;;;;;5025991;28;20063;-63
2022/11/13 01:35:47;;;;;;;29.67;9.52;;;;;;;;;;5043853;28;20044;-62
2022/11/13 01:38:12;;;;;;;17.25;8.70;;;;;;;;;;5046264;28;20449;-63
2022/11/13 01:40:44;;;;;;;18.67;9.27;;;;;;;;;;5046917;28;20024;-62
2022/11/13 01:43:25;;;;;;;36.28;9.18;;;;;;;;;;5044570;28;20013;-63
2022/11/13 01:45:56;;;;;;;40.95;9.30;;;;;;;;;;5046379;28;20116;-62
2022/11/13 01:48:21;;;;;;;44.58;8.63;;;;;;;;;;5044962;28;20059;-62
2022/11/13 01:50:47;;;;;;;93.40;9.30;;;;;;;;;;5046446;28;20643;-62
2022/11/13 01:53:12;;;;;;;107.00;10.63;;;;;;;;;;5046215;28;20033;-62
2022/11/13 01:55:38;;;;;;;67.22;8.68;;;;;;;;;;5044922;28;20047;-62
2022/11/13 01:58:07;;;;;;;35.00;8.00;;;;;;;;;;5046839;28;20028;-62
2022/11/13 02:00:33;;;;;;;53.72;8.77;;;;;;;;;;5042631;28;20036;-62
2022/11/13 02:02:58;;;;;;;25.80;8.25;;;;;;;;;;5036139;28;20407;-62
2022/11/13 02:05:23;;;;;;;18.15;7.80;;;;;;;;;;5043029;28;20295;-62
2022/11/13 02:07:49;;;;;;;39.35;8.65;;;;;;;;;;5041706;28;20060;-62
2022/11/13 02:10:14;;;;;;;35.65;8.00;;;;;;;;;;5046700;28;20025;-62
2022/11/13 02:12:44;;;;;;;50.30;8.55;;;;;;;;;;5040106;28;20068;-62
2022/11/13 02:15:10;;;;;;;40.20;8.95;;;;;;;;;;5034001;28;20037;-63
2022/11/13 02:17:50;;;;;;;35.13;8.00;;;;;;;;;;5046043;28;20055;-62
2022/11/13 02:20:25;;;;;;;89.03;10.25;;;;;;;;;;5044435;28;20099;-62
2022/11/13 02:23:15;;;;;;;75.13;8.93;;;;;;;;;;5045587;28;20040;-62
2022/11/13 02:25:43;;;;;;;52.85;9.20;;;;;;;;;;5045053;28;20048;-63
2022/11/13 02:28:08;;;;;;;66.22;8.65;;;;;;;;;;5044321;28;20116;-62
2022/11/13 02:30:34;;;;;;;98.65;11.02;;;;;;;;;;5045709;28;20120;-63
2022/11/13 02:33:00;;;;;;;48.70;9.95;;;;;;;;;;5045558;28;20453;-62
2022/11/13 02:35:31;;;;;;;58.05;9.50;;;;;;;;;;5045843;28;20513;-63
2022/11/13 02:38:00;;;;;;;41.10;9.25;;;;;;;;;;5043848;28;20037;-63
2022/11/13 02:40:26;;;;;;;64.82;8.88;;;;;;;;;;5028349;28;20485;-62
2022/11/13 02:42:52;;;;;;;35.63;9.43;;;;;;;;;;5026618;28;20029;-63
2022/11/13 02:45:17;;;;;;;53.75;9.05;;;;;;;;;;5025640;28;20481;-63
2022/11/13 02:47:43;;;;;;;16.02;8.45;;;;;;;;;;5025546;28;20537;-62
2022/11/13 02:50:09;;;;;;;31.35;9.20;;;;;;;;;;5025082;28;20466;-62
2022/11/13 02:52:34;;;;;;;16.15;8.45;;;;;;;;;;5037708;28;20124;-62
2022/11/13 02:55:00;;;;;;;15.27;8.88;;;;;;;;;;5038442;28;20108;-62
2022/11/13 02:57:25;;;;;;;19.52;8.75;;;;;;;;;;5041146;28;20060;-62
2022/11/13 02:59:50;;;;;;;17.23;8.07;;;;;;;;;;5059605;28;20041;-62
2022/11/13 03:02:16;;;;;;;13.40;7.85;;;;;;;;;;5045820;28;20414;-62
2022/11/13 03:04:41;;;;;;;16.63;9.05;;;;;;;;;;5041506;28;20033;-62
2022/11/13 03:07:07;;;;;;;17.50;8.55;;;;;;;;;;5044895;28;20100;-63
2022/11/13 03:09:32;;;;;;;16.40;9.05;;;;;;;;;;5044236;28;20053;-62
2022/11/13 03:11:57;;;;;;;14.82;8.20;;;;;;;;;;5044718;28;20060;-62
2022/11/13 03:14:23;;;;;;;13.23;7.90;;;;;;;;;;5045035;28;20060;-62
2022/11/13 03:16:48;;;;;;;14.85;8.15;;;;;;;;;;5044531;28;20414;-62
2022/11/13 03:19:14;;;;;;;17.55;8.52;;;;;;;;;;5058575;28;20078;-62
2022/11/13 03:21:39;;;;;;;17.17;8.20;;;;;;;;;;5065470;28;20066;-62
2022/11/13 03:24:04;;;;;;;13.77;7.70;;;;;;;;;;5065183;28;20231;-62
2022/11/13 03:26:30;;;;;;;13.32;7.88;;;;;;;;;;5065010;28;20036;-62
2022/11/13 03:28:55;;;;;;;15.48;8.00;;;;;;;;;;5064995;28;20064;-62
2022/11/13 03:31:21;;;;;;;15.15;8.10;;;;;;;;;;5067509;28;20020;-62
2022/11/13 03:33:47;;;;;;;15.05;8.80;;;;;;;;;;5068476;28;20040;-62
2022/11/13 03:36:13;;;;;;;15.30;8.20;;;;;;;;;;5050434;28;20044;-62
2022/11/13 03:38:38;;;;;;;14.02;8.02;;;;;;;;;;5047596;28;20060;-62
2022/11/13 03:41:04;;;;;;;13.40;7.53;;;;;;;;;;5048838;28;20052;-62
2022/11/13 03:43:29;;;;;;;13.95;7.93;;;;;;;;;;5047492;28;20078;-62
2022/11/13 03:45:55;;;;;;;13.93;7.97;;;;;;;;;;5049163;28;20040;-63
2022/11/13 03:48:20;;;;;;;16.08;7.85;;;;;;;;;;5038616;28;20033;-62
2022/11/13 03:50:48;;;;;;;12.32;7.85;;;;;;;;;;5048323;28;20035;-62
2022/11/13 03:53:14;;;;;;;12.98;7.53;;;;;;;;;;5048406;28;20848;-62
2022/11/13 03:55:39;;;;;;;15.23;8.40;;;;;;;;;;5047632;28;20028;-62
2022/11/13 03:58:05;;;;;;;14.38;7.68;;;;;;;;;;5049614;28;20037;-62
2022/11/13 04:00:31;;;;;;;14.38;7.70;;;;;;;;;;5048345;28;20091;-62
2022/11/13 04:02:56;;;;;;;13.05;7.82;;;;;;;;;;5048622;28;20086;-62
2022/11/13 04:05:21;;;;;;;15.70;7.95;;;;;;;;;;5043228;28;20044;-62
2022/11/13 04:07:47;;;;;;;14.90;7.80;;;;;;;;;;5026290;28;20033;-62
2022/11/13 04:10:13;;;;;;;15.27;8.70;;;;;;;;;;5028317;28;20041;-63
2022/11/13 04:12:39;;;;;;;13.52;8.23;;;;;;;;;;5047326;28;20041;-63
2022/11/13 04:15:04;;;;;;;14.45;8.20;;;;;;;;;;5046936;28;20037;-62
2022/11/13 04:17:30;;;;;;;13.93;8.23;;;;;;;;;;5047740;28;20502;-62
2022/11/13 04:19:55;;;;;;;12.45;8.13;;;;;;;;;;5047292;28;20033;-62
2022/11/13 04:22:20;;;;;;;14.95;8.25;;;;;;;;;;5047865;28;20028;-62
2022/11/13 04:24:46;;;;;;;13.38;7.72;;;;;;;;;;5046680;28;20455;-62
2022/11/13 04:27:11;;;;;;;13.95;7.65;;;;;;;;;;5046485;28;20032;-63
2022/11/13 04:29:36;;;;;;;14.48;8.45;;;;;;;;;;5046822;28;20075;-62
2022/11/13 04:32:02;;;;;;;13.07;7.78;;;;;;;;;;5047364;28;20033;-62
2022/11/13 04:34:27;;;;;;;15.07;8.45;;;;;;;;;;5048146;28;20075;-62
2022/11/13 04:36:52;;;;;;;14.05;8.02;;;;;;;;;;5040341;28;20716;-62
2022/11/13 04:39:17;;;;;;;15.68;8.52;;;;;;;;;;5046992;28;20445;-62
2022/11/13 04:44:26;;;;;;;;;;;;;;;;;;5038574;28;20041;-62
2022/11/13 04:46:52;;;;;;;13.95;8.60;;;;;;;;;;5042263;28;19916;-62
2022/11/13 04:49:17;;;;;;;12.75;7.88;;;;;;;;;;5028608;28;20029;-62
2022/11/13 04:51:42;;;;;;;15.40;8.82;;;;;;;;;;5027388;28;20029;-62
2022/11/13 04:54:08;;;;;;;19.00;9.02;;;;;;;;;;5029038;28;20124;-62
2022/11/13 04:56:33;;;;;;;18.45;9.35;;;;;;;;;;5026271;28;20037;-62
2022/11/13 04:58:58;;;;;;;16.92;8.85;;;;;;;;;;5059279;28;20574;-62
2022/11/13 05:01:24;;;;;;;17.38;8.75;;;;;;;;;;5027868;28;20025;-62
2022/11/13 05:03:49;;;;;;;17.55;9.40;;;;;;;;;;5028041;28;20029;-62
2022/11/13 05:06:14;;;;;;;19.98;10.20;;;;;;;;;;5030899;28;20048;-62
2022/11/13 05:08:40;;;;;;;15.88;8.82;;;;;;;;;;5042040;28;20037;-62
2022/11/13 05:11:05;;;;;;;15.77;9.20;;;;;;;;;;5047199;28;20045;-62
2022/11/13 05:13:32;;;;;;;17.02;8.75;;;;;;;;;;5047488;28;20028;-62
2022/11/13 05:16:03;;;;;;;17.58;9.45;;;;;;;;;;5047677;28;20478;-62
2022/11/13 05:18:29;;;;;;;16.95;8.32;;;;;;;;;;5047237;28;20029;-62
2022/11/13 05:20:55;;;;;;;17.88;8.27;;;;;;;;;;5047186;28;20091;-62
2022/11/13 05:23:20;;;;;;;13.23;7.65;;;;;;;;;;5046067;28;20028;-62
2022/11/13 05:25:45;;;;;;;14.85;8.75;;;;;;;;;;5046431;28;20036;-62
2022/11/13 05:28:10;;;;;;;13.50;8.25;;;;;;;;;;5046641;28;20496;-62
2022/11/13 05:30:36;;;;;;;15.88;8.43;;;;;;;;;;5047013;28;20041;-62
2022/11/13 05:33:01;;;;;;;14.20;8.40;;;;;;;;;;5045057;28;20044;-62
2022/11/13 05:35:26;;;;;;;15.65;8.05;;;;;;;;;;5047050;28;20065;-62
2022/11/13 05:37:52;;;;;;;13.75;7.35;;;;;;;;;;5026895;28;20098;-62
2022/11/13 05:40:17;;;;;;;14.38;8.02;;;;;;;;;;5041879;28;20017;-62
2022/11/13 05:42:42;;;;;;;19.88;8.27;;;;;;;;;;5047024;28;20049;-62
2022/11/13 05:45:08;;;;;;;15.98;8.70;;;;;;;;;;5044254;28;20029;-63
2022/11/13 05:47:33;;;;;;;13.75;7.90;;;;;;;;;;5046810;28;20033;-62
2022/11/13 05:49:59;;;;;;;17.45;8.77;;;;;;;;;;5046368;28;20421;-62
2022/11/13 05:52:24;;;;;;;14.60;8.18;;;;;;;;;;5045801;28;20025;-62
2022/11/13 05:54:49;;;;;;;13.68;8.18;;;;;;;;;;5045896;28;20028;-62
2022/11/13 05:57:15;;;;;;;15.60;8.00;;;;;;;;;;5046078;28;20037;-62
2022/11/13 05:59:40;;;;;;;11.82;7.18;;;;;;;;;;5033028;28;20142;-62
2022/11/13 06:02:05;;;;;;;12.90;7.63;;;;;;;;;;5026905;28;20537;-62
2022/11/13 06:04:30;;;;;;;15.18;7.95;;;;;;;;;;5025765;28;20025;-62
2022/11/13 06:06:56;;;;;;;13.93;7.65;;;;;;;;;;5026349;28;20024;-62
2022/11/13 06:09:21;;;;;;;13.23;7.88;;;;;;;;;;5041477;28;20053;-62
2022/11/13 06:11:47;;;;;;;14.90;8.05;;;;;;;;;;5046971;28;20115;-62
2022/11/13 06:14:12;;;;;;;13.93;7.68;;;;;;;;;;5025967;28;20026;-62
2022/11/13 06:16:38;;;;;;;15.82;7.78;;;;;;;;;;5026108;28;20165;-62
2022/11/13 06:19:07;;;;;;;12.80;6.78;;;;;;;;;;5027000;28;20025;-62
2022/11/13 06:21:34;;;;;;;13.93;7.57;;;;;;;;;;5043270;28;20068;-62
2022/11/13 06:24:00;;;;;;;13.07;7.10;;;;;;;;;;5044447;28;20048;-62
2022/11/13 06:26:32;;;;;;;13.02;7.32;;;;;;;;;;5044656;28;20116;-62
2022/11/13 06:28:57;;;;;;;14.52;8.10;;;;;;;;;;5043036;28;20155;-62
2022/11/13 06:31:26;;;;;;;14.38;8.05;;;;;;;;;;5044771;28;20484;-62
2022/11/13 06:33:52;;;;;;;18.63;9.77;;;;;;;;;;5045883;28;20029;-62
2022/11/13 06:36:32;;;;;;;19.42;9.15;;;;;;;;;;5048019;28;20029;-62
2022/11/13 06:38:58;;;;;;;17.02;9.30;;;;;;;;;;5061216;28;20033;-62
2022/11/13 06:41:28;;;;;;;17.80;7.97;;;;;;;;;;5045497;28;20040;-62
2022/11/13 06:43:53;;;;;;;15.85;8.68;;;;;;;;;;5045784;28;20172;-62
2022/11/13 06:46:24;;;;;;;16.13;8.55;;;;;;;;;;5044691;28;20487;-62
2022/11/13 06:48:49;;;;;;;16.10;8.30;;;;;;;;;;5045114;28;20574;-63
2022/11/13 06:51:17;;;;;;;12.70;8.07;;;;;;;;;;5045583;28;20047;-62
2022/11/13 06:53:43;;;;;;;14.93;7.47;;;;;;;;;;5040920;28;20025;-62
2022/11/13 06:56:09;;;;;;;14.95;7.35;;;;;;;;;;5022844;28;20597;-62
2022/11/13 06:58:35;;;;;;;16.35;7.82;;;;;;;;;;5006191;28;20033;-62
2022/11/13 07:01:08;;;;;;;14.02;8.13;;;;;;;;;;5006047;28;20491;-62
2022/11/13 07:03:34;;;;;;;14.30;7.45;;;;;;;;;;5010828;28;20038;-62
2022/11/13 07:06:08;;;;;;;15.13;7.75;;;;;;;;;;5012595;28;20041;-62
2022/11/13 07:08:34;;;;;;;16.88;7.13;;;;;;;;;;5006979;28;20127;-62
2022/11/13 07:10:59;;;;;;;14.18;7.68;;;;;;;;;;5044094;28;20871;-62
2022/11/13 07:13:26;;;;;;;15.05;7.80;;;;;;;;;;5021388;28;20049;-62
2022/11/13 07:15:51;;;;;;;13.05;7.03;;;;;;;;;;5022260;28;20021;-62
2022/11/13 07:18:17;;;;;;;13.85;7.13;;;;;;;;;;5023322;28;20083;-62
2022/11/13 07:20:42;;;;;;;12.20;6.10;;;;;;;;;;5024041;28;20057;-62
2022/11/13 07:23:08;;;;;;;13.07;7.13;;;;;;;;;;5024290;28;20144;-62
2022/11/13 07:25:33;;;;;;;13.25;6.40;;;;;;;;;;5024334;28;20130;-62
2022/11/13 07:27:58;;;;;;;13.40;6.38;;;;;;;;;;5022684;28;20030;-62
2022/11/13 07:30:24;;;;;;;12.40;6.07;;;;;;;;;;5023958;28;20120;-62
2022/11/13 07:32:49;;;;;;;11.52;7.05;;;;;;;;;;5022745;28;20062;-62
2022/11/13 07:35:15;;;;;;;11.60;6.50;;;;;;;;;;5006101;28;20037;-62
2022/11/13 07:37:41;;;;;;;15.25;7.53;;;;;;;;;;5025578;28;20557;-62
2022/11/13 07:40:07;;;;;;;13.15;6.55;;;;;;;;;;5024983;28;20022;-63
2022/11/13 07:42:33;;;;;;;18.10;7.57;;;;;;;;;;5013405;28;20511;-62
2022/11/13 07:44:58;;;;;;;13.98;7.38;;;;;;;;;;5023169;28;20040;-62
2022/11/13 07:47:23;;;;;;;14.27;6.97;;;;;;;;;;5024753;28;20042;-62
2022/11/13 07:49:49;;;;;;;18.02;8.73;;;;;;;;;;5024465;28;20036;-62
2022/11/13 07:52:15;;;;;;;19.92;8.15;;;;;;;;;;5010898;28;20021;-62
2022/11/13 07:54:40;;;;;;;20.48;9.32;;;;;;;;;;5024224;28;20626;-62
2022/11/13 07:57:05;;;;;;;20.10;8.95;;;;;;;;;;5024467;28;20046;-63
2022/11/13 07:59:31;;;;;;;23.77;9.93;;;;;;;;;;5017545;28;20037;-62
2022/11/13 08:01:56;;;;;;;49.38;19.30;;;;;;;;;;5018716;28;20040;-62
2022/11/13 08:04:21;;;;;;;29.77;14.30;;;;;;;;;;5023226;28;20029;-62
2022/11/13 08:06:47;;;;;;;44.85;19.02;;;;;;;;;;5022596;28;20460;-62
2022/11/13 08:09:12;;;;;;;33.83;14.85;;;;;;;;;;5021324;28;20037;-62
2022/11/13 08:11:38;;;;;;;28.92;12.60;;;;;;;;;;5010169;28;20034;-62
2022/11/13 08:14:03;;;;;;;23.02;10.95;;;;;;;;;;5011401;28;20099;-62
2022/11/13 08:16:28;;;;;;;25.48;12.13;;;;;;;;;;5023609;28;20104;-63
2022/11/13 08:18:54;;;;;;;31.40;11.85;;;;;;;;;;5023234;28;20608;-62
2022/11/13 08:21:20;;;;;;;26.30;11.73;;;;;;;;;;5025940;28;20042;-62
2022/11/13 08:23:45;;;;;;;24.95;11.32;;;;;;;;;;5024103;28;20125;-62
2022/11/13 08:26:11;;;;;;;26.30;11.63;;;;;;;;;;5021437;28;20129;-62
2022/11/13 08:28:36;;;;;;;21.00;10.45;;;;;;;;;;5022945;28;20124;-62
2022/11/13 08:31:02;;;;;;;26.85;12.32;;;;;;;;;;5027216;28;20478;-62
2022/11/13 08:33:28;;;;;;;26.75;11.00;;;;;;;;;;5019947;28;20034;-62
2022/11/13 08:35:58;;;;;;;23.92;11.48;;;;;;;;;;5023798;28;20499;-63
2022/11/13 08:38:24;;;;;;;17.88;9.68;;;;;;;;;;5012495;28;20029;-62
2022/11/13 08:40:50;;;;;;;28.38;12.20;;;;;;;;;;5018116;28;20033;-62
2022/11/13 08:43:16;;;;;;;22.40;11.70;;;;;;;;;;5019575;28;20033;-62
2022/11/13 08:45:43;;;;;;;25.25;12.25;;;;;;;;;;5015170;28;20870;-62
2022/11/13 08:48:09;;;;;;;24.70;11.93;;;;;;;;;;5009850;28;20045;-62
2022/11/13 08:50:34;;;;;;;22.58;11.45;;;;;;;;;;5012162;28;20466;-62
2022/11/13 08:53:00;;;;;;;18.90;10.00;;;;;;;;;;5012777;28;20454;-63
2022/11/13 08:55:26;;;;;;;22.80;10.90;;;;;;;;;;5013526;28;20029;-62
2022/11/13 08:57:52;;;;;;;19.33;10.02;;;;;;;;;;5013891;28;20184;-62
2022/11/13 09:00:19;;;;;;;19.42;10.40;;;;;;;;;;5041360;28;20534;-62
2022/11/13 09:02:45;;;;;;;22.30;9.65;;;;;;;;;;5020890;28;20036;-62
2022/11/13 09:05:11;;;;;;;18.38;10.25;;;;;;;;;;5013677;28;20037;-62
2022/11/13 09:07:36;;;;;;;23.80;10.73;;;;;;;;;;5006028;28;20044;-62
2022/11/13 09:10:02;;;;;;;21.88;10.30;;;;;;;;;;5005941;28;20523;-62
2022/11/13 09:12:27;;;;;;;24.20;10.05;;;;;;;;;;5025740;28;20038;-62
2022/11/13 09:14:53;;;;;;;25.17;11.30;;;;;;;;;;5015039;28;20065;-62
2022/11/13 09:17:18;;;;;;;22.10;9.10;;;;;;;;;;5006895;28;20050;-61
2022/11/13 09:19:43;;;;;;;21.90;8.93;;;;;;;;;;5005385;28;20045;-62
2022/11/13 09:22:09;;;;;;;19.23;8.48;;;;;;;;;;5006573;28;20021;-62
2022/11/13 09:24:34;;;;;;;18.45;9.48;;;;;;;;;;5006977;28;20503;-62
2022/11/13 09:27:00;;;;;;;19.65;8.90;;;;;;;;;;5007089;28;20523;-62
2022/11/13 09:29:27;;;;;;;22.27;9.57;;;;;;;;;;5005401;28;20049;-62
2022/11/13 09:31:53;;;;;;;22.83;10.40;;;;;;;;;;5007232;28;20503;-61
2022/11/13 09:34:18;;;;;;;21.08;9.13;;;;;;;;;;5009367;28;20516;-62
2022/11/13 09:36:44;;;;;;;18.95;8.38;;;;;;;;;;5025351;28;20108;-62
2022/11/13 09:39:10;;;;;;;18.52;8.50;;;;;;;;;;5026578;28;20463;-62
2022/11/13 09:41:42;;;;;;;20.25;9.10;;;;;;;;;;5026522;28;20045;-62
2022/11/13 09:44:19;;;;;;;18.70;9.23;;;;;;;;;;5025498;28;20178;-62
2022/11/13 09:47:01;;;;;;;21.45;9.60;;;;;;;;;;5026568;28;20029;-62
2022/11/13 09:49:33;;;;;;;15.85;8.80;;;;;;;;;;5026284;28;20083;-62
2022/11/13 09:52:02;;;;;;;24.98;9.57;;;;;;;;;;5026329;28;20037;-61
2022/11/13 09:54:27;;;;;;;15.90;8.43;;;;;;;;;;5025982;28;20045;-62
2022/11/13 09:57:31;;;;;;;16.42;8.10;;;;;;;;;;5026241;28;20049;-62
2022/11/13 10:00:27;;;;;;;14.60;7.05;;;;;;;;;;5036031;28;20135;-62
2022/11/13 10:03:08;;;;;;;13.52;7.38;;;;;;;;;;5036640;28;20037;-62
2022/11/13 10:05:46;;;;;;;16.48;8.63;;;;;;;;;;5044120;28;20114;-62
2022/11/13 10:08:20;;;;;;;16.50;7.70;;;;;;;;;;5044959;28;20056;-62
2022/11/13 10:11:04;;;;;;;14.75;7.75;;;;;;;;;;5044259;28;20623;-62
2022/11/13 10:13:35;;;;;;;14.75;7.68;;;;;;;;;;5043977;28;20029;-62
2022/11/13 10:16:13;;;;;;;15.82;7.63;;;;;;;;;;5046074;28;20056;-62
2022/11/13 10:18:39;;;;;;;44.40;19.02;;;;;;;;;;5045120;28;20029;-62
2022/11/13 10:21:40;;;;;;;27.23;12.20;;;;;;;;;;5045587;28;20033;-62
2022/11/13 10:24:15;;;;;;;38.33;15.05;;;;;;;;;;5014003;28;20134;-62
2022/11/13 10:26:40;;;;;;;29.27;13.35;;;;;;;;;;5014252;28;20133;-62
2022/11/13 10:29:16;;;;;;;23.42;9.80;;;;;;;;;;5012521;28;20145;-62
2022/11/13 10:31:47;;;;;;;18.65;8.60;;;;;;;;;;5024807;28;20037;-62
2022/11/13 10:34:14;;;;;;;18.27;8.85;;;;;;;;;;5016935;28;20031;-62
2022/11/13 10:36:54;;;;;;;18.77;8.70;;;;;;;;;;5007712;28;20369;-61
2022/11/13 10:39:20;;;;;;;14.00;7.80;;;;;;;;;;5010831;28;20032;-62
2022/11/13 10:41:50;;;;;;;18.58;9.35;;;;;;;;;;5014581;28;20037;-62
2022/11/13 10:44:29;;;;;;;15.50;8.50;;;;;;;;;;5014222;28;20050;-62
2022/11/13 10:47:16;;;;;;;17.70;9.05;;;;;;;;;;5003445;28;20034;-62
2022/11/13 10:49:41;;;;;;;23.42;9.90;;;;;;;;;;5004853;28;20051;-62
2022/11/13 10:52:43;;;;;;;23.35;12.02;;;;;;;;;;5007142;28;20068;-63
2022/11/13 10:55:19;;;;;;;16.58;8.63;;;;;;;;;;5012880;28;20087;-62
2022/11/13 10:57:57;;;;;;;17.73;8.25;;;;;;;;;;5017621;28;20040;-62
2022/11/13 11:00:34;;;;;;;19.00;8.30;;;;;;;;;;5022218;28;20037;-62
2022/11/13 11:03:00;;;;;;;16.80;8.10;;;;;;;;;;5022506;28;20033;-63
2022/11/13 11:05:27;;;;;;;13.75;7.93;;;;;;;;;;5023688;28;20034;-63
2022/11/13 11:07:53;;;;;;;12.88;6.90;;;;;;;;;;5014514;28;20045;-63
2022/11/13 11:10:34;;;;;;;13.55;7.75;;;;;;;;;;5013271;28;20029;-63
2022/11/13 11:13:11;;;;;;;15.40;7.82;;;;;;;;;;5043514;28;20116;-63
2022/11/13 11:16:00;;;;;;;14.50;7.22;;;;;;;;;;5025122;28;20072;-63
2022/11/13 11:18:28;;;;;;;15.80;8.10;;;;;;;;;;5023665;28;20099;-63
2022/11/13 11:20:57;;;;;;;14.43;7.43;;;;;;;;;;5024322;28;20091;-63
2022/11/13 11:23:41;;;;;;;13.82;7.63;;;;;;;;;;5022624;28;20029;-62
2022/11/13 11:26:20;;;;;;;17.52;7.80;;;;;;;;;;5023479;28;20045;-63
2022/11/13 11:28:50;;;;;;;13.57;7.03;;;;;;;;;;5022139;28;20038;-62
2022/11/13 11:31:25;;;;;;;11.02;6.78;;;;;;;;;;5023611;28;20585;-63
2022/11/13 11:34:01;;;;;;;13.48;7.25;;;;;;;;;;5024470;28;20037;-63
2022/11/13 11:36:39;;;;;;;16.77;7.75;;;;;;;;;;5022765;28;20091;-63
2022/11/13 11:39:47;;;;;;;17.92;8.40;;;;;;;;;;5021904;28;20060;-63
2022/11/13 11:42:22;;;;;;;11.60;7.35;;;;;;;;;;5022336;28;20030;-62
2022/11/13 11:44:58;;;;;;;15.18;6.45;;;;;;;;;;5023357;28;20042;-62
2022/11/13 11:47:24;;;;;;;15.98;5.93;;;;;;;;;;5023108;28;20038;-62
2022/11/13 11:49:49;;;;;;;10.75;5.78;;;;;;;;;;5023286;28;20037;-62
2022/11/13 11:52:35;;;;;;;8.35;5.00;;;;;;;;;;5026684;28;20056;-62
2022/11/13 11:55:29;;;;;;;11.23;6.05;;;;;;;;;;5027159;28;20033;-63
2022/11/13 11:58:04;;;;;;;;;;;;;;;;;;5045381;28;20048;-62
2022/11/13 12:00:31;;;;;;;12.60;6.03;;;;;;;;;;5047096;28;19912;-62
2022/11/13 12:03:12;;;;;;;10.38;6.07;;;;;;;;;;5045824;28;20044;-63
2022/11/13 12:05:51;;;;;;;13.05;6.63;;;;;;;;;;5045154;28;20465;-62
2022/11/13 12:08:47;;;;;;;11.52;6.35;;;;;;;;;;5027870;28;20676;-62
2022/11/13 12:11:28;;;;;;;11.35;5.63;;;;;;;;;;5033784;28;20045;-62
2022/11/13 12:14:10;;;;;;;11.15;5.82;;;;;;;;;;5004640;28;20128;-62
2022/11/13 12:17:18;;;;;;;11.05;6.25;;;;;;;;;;5017186;28;20063;-62
2022/11/13 12:20:08;;;;;;;9.93;5.60;;;;;;;;;;5022631;28;20539;-62
2022/11/13 12:22:42;;;;;;;14.75;6.03;;;;;;;;;;5021368;28;20104;-62
2022/11/13 12:25:29;;;;;;;10.50;5.95;;;;;;;;;;5023099;28;20075;-62
2022/11/13 12:28:30;;;;;;;10.18;6.22;;;;;;;;;;5042545;28;20045;-62
2022/11/13 12:31:04;;;;;;;11.50;6.65;;;;;;;;;;5042195;28;20129;-62
2022/11/13 12:33:58;;;;;;;10.15;5.95;;;;;;;;;;5052290;28;20083;-62
2022/11/13 12:36:24;;;;;;;9.88;5.47;;;;;;;;;;5031634;28;20045;-62
2022/11/13 12:38:59;;;;;;;11.00;6.53;;;;;;;;;;5024058;28;20044;-62
2022/11/13 12:41:41;;;;;;;11.05;6.13;;;;;;;;;;5025919;28;20075;-62
2022/11/13 12:44:23;;;;;;;15.32;6.20;;;;;;;;;;5024963;28;20041;-62
2022/11/13 12:46:50;;;;;;;12.85;6.97;;;;;;;;;;5025298;28;20087;-62
2022/11/13 12:49:21;;;;;;;11.13;6.70;;;;;;;;;;5025635;28;20545;-63
2022/11/13 12:51:58;;;;;;;11.63;6.32;;;;;;;;;;5024284;28;20057;-62
2022/11/13 12:54:31;;;;;;;12.07;6.60;;;;;;;;;;5024214;28;20684;-62
2022/11/13 12:57:11;;;;;;;15.55;7.22;;;;;;;;;;5046192;28;20175;-63
2022/11/13 12:59:42;;;;;;;11.95;6.00;;;;;;;;;;5033194;28;20742;-63
2022/11/13 13:02:39;;;;;;;13.40;6.82;;;;;;;;;;5021977;28;20072;-62
2022/11/13 13:05:18;;;;;;;13.23;6.60;;;;;;;;;;5005003;28;20038;-63
2022/11/13 13:07:58;;;;;;;14.48;6.47;;;;;;;;;;5037484;28;20042;-62
2022/11/13 13:10:43;;;;;;;11.43;6.47;;;;;;;;;;5007847;28;20030;-63
2022/11/13 13:13:08;;;;;;;13.90;7.10;;;;;;;;;;5025576;28;20029;-63
2022/11/13 13:15:36;;;;;;;14.15;7.38;;;;;;;;;;5024137;28;20042;-63
2022/11/13 13:18:09;;;;;;;12.63;6.90;;;;;;;;;;5025576;28;20136;-62
2022/11/13 13:20:37;;;;;;;23.05;6.90;;;;;;;;;;5025864;28;20128;-63
2022/11/13 13:23:04;;;;;;;13.95;7.05;;;;;;;;;;5024593;28;20071;-63
2022/11/13 13:25:34;;;;;;;12.60;7.05;;;;;;;;;;5023833;28;20047;-62
2022/11/13 13:28:18;;;;;;;13.38;7.30;;;;;;;;;;5025370;28;20541;-62
2022/11/13 13:31:25;;;;;;;15.20;7.28;;;;;;;;;;5025237;28;20533;-62
2022/11/13 13:34:12;;;;;;;15.00;7.82;;;;;;;;;;5023860;28;20037;-64
2022/11/13 13:36:52;;;;;;;13.77;7.88;;;;;;;;;;5023245;28;20122;-61
2022/11/13 13:39:37;;;;;;;14.60;7.32;;;;;;;;;;5023357;28;20034;-61
2022/11/13 13:42:33;;;;;;;12.55;7.22;;;;;;;;;;5010507;28;20108;-62
2022/11/13 13:45:19;;;;;;;12.48;7.50;;;;;;;;;;5011701;28;20049;-62
2022/11/13 13:47:48;;;;;;;16.08;7.97;;;;;;;;;;5006228;28;20102;-62
2022/11/13 13:50:39;;;;;;;15.50;7.82;;;;;;;;;;5008725;28;20149;-62
2022/11/13 13:53:07;;;;;;;18.17;8.55;;;;;;;;;;5012783;28;20044;-62
2022/11/13 13:55:36;;;;;;;15.38;8.95;;;;;;;;;;5021604;28;20136;-65
2022/11/13 13:58:07;;;;;;;15.40;7.85;;;;;;;;;;5025640;28;20022;-64
2022/11/13 14:00:33;;;;;;;15.65;8.43;;;;;;;;;;5024563;28;20038;-64
2022/11/13 14:03:00;;;;;;;17.60;9.10;;;;;;;;;;5023958;28;20045;-65
2022/11/13 14:05:31;;;;;;;17.95;9.13;;;;;;;;;;5023981;28;20064;-64
2022/11/13 14:07:58;;;;;;;17.75;9.25;;;;;;;;;;5022241;28;20866;-65
2022/11/13 14:10:27;;;;;;;19.08;9.02;;;;;;;;;;5023513;28;20033;-66
2022/11/13 14:12:53;;;;;;;17.08;8.10;;;;;;;;;;5025380;28;20079;-65
2022/11/13 14:15:33;;;;;;;14.70;8.13;;;;;;;;;;5024166;28;20064;-65
2022/11/13 14:18:05;;;;;;;15.10;8.45;;;;;;;;;;5024869;28;20049;-65
2022/11/13 14:20:45;;;;;;;12.07;7.60;;;;;;;;;;5024257;28;20045;-65
2022/11/13 14:23:16;;;;;;;20.23;8.18;;;;;;;;;;5025167;28;20547;-65
2022/11/13 14:25:43;;;;;;;13.10;7.55;;;;;;;;;;5024633;28;20040;-65
2022/11/13 14:28:17;;;;;;;13.95;8.05;;;;;;;;;;5017478;28;20030;-65
2022/11/13 14:30:43;;;;;;;18.33;8.30;;;;;;;;;;5004509;28;20041;-64
2022/11/13 14:33:16;;;;;;;14.40;8.43;;;;;;;;;;5005141;28;20034;-64
2022/11/13 14:35:51;;;;;;;15.20;7.72;;;;;;;;;;5004514;28;20052;-64
2022/11/13 14:38:23;;;;;;;14.40;7.93;;;;;;;;;;5003609;28;20041;-64
2022/11/13 14:40:49;;;;;;;15.02;7.90;;;;;;;;;;5023496;28;20033;-64
2022/11/13 14:43:21;;;;;;;15.38;8.05;;;;;;;;;;5024154;28;20673;-64
2022/11/13 14:45:57;;;;;;;15.70;8.27;;;;;;;;;;5043374;28;20102;-64